默认 日期 大小 文件数 浏览量 最新下载 xml
outer磁力链接相关资源由用户搜索指令自动获取,结果来源于网络,本站不存储任何资料,亦不承担任何责任,请于24小时内删除,搜索到5960个磁力,显示前4000条数据,用时5ms。
    {"Outer.Banks.S01E01.400p.Octopus.avi": 767053824, "Outer.Banks.S01E02.400p.Octopus.avi": 658972672, "Outer.Banks.S01E03.400p.Octopus.avi": 662298624, "Outer.Banks.S01E04.400p.Octopus.avi": 697839616, "Outer.Banks.S01E05.400p.Octopus.avi": 669370368}
创建时间: 2020-04-26 21:56:08 大小:3.22 GB 文件数量:5 热度:2 最近下载:2024-01-01 07:20:01
    ... .&.Beyond.Collection": {"09.The.Outer.Limits.S03E11.New.Lease.HR. ... .Us.Collection": {"02.The.Outer.Limits.S02E15.Afterlife.HR.DVDRip ... mkv": 760093920, "01.The.Outer.Limits.S01E14.Quality.of.Mercy ... mkv": 760293617, "04.The.Outer.Limits.S04E06.Relativity.Theory.HR ...
创建时间: 2020-04-26 22:32:19 大小:8.49 GB 文件数量:12 热度:4 最近下载:2024-12-17 20:32:02
    ... Downloadhub.life.mkv": 305824734, "Outer.Banks.S01E02.HIndi.English.720p ... .life.mkv": 258462708, "Outer.Banks.S01E03.HIndi.English.720p ... .life.mkv": 263774503, "Outer.Banks.S01E04.HIndi.English.720p ... .life.mkv": 274557926, "Outer.Banks.S01E05.HIndi.English.720p ...
创建时间: 2020-04-27 12:40:28 大小:2.61 GB 文件数量:12 热度:3 最近下载:2024-01-01 08:49:01
    {"Outer.Banks.s01e01.WEBDL.720p.NewStudio.TV.mkv": 1888913114, "Outer.Banks.s01e02.WEBDL.720p.NewStudio.TV.mkv": 1467860987, "Outer.Banks.s01e03.WEBDL.720p.NewStudio.TV.mkv": 1525309265}
创建时间: 2020-04-27 13:47:38 大小:4.55 GB 文件数量:3 热度:2 最近下载:2024-01-01 08:56:04
    ... spectacle.r00": 50000000, "queen.of.outer.space.1958.720p.bluray.x264 ... .r01": 50000000, "queen.of.outer.space.1958.720p.bluray.x264 ... .r02": 50000000, "queen.of.outer.space.1958.720p.bluray.x264 ... .r03": 50000000, "queen.of.outer.space.1958.720p.bluray.x264 ...
创建时间: 2020-04-28 07:46:12 大小:4.37 GB 文件数量:96 热度:12 最近下载:2025-01-31 04:54:06
    ... x264-WEEDS.mp4": 418375374, "Outer.Banks.2020.S01E02.VOSTFR.WEBRip ... x264-WEEDS.mp4": 337294814, "Outer.Banks.2020.S01E03.VOSTFR.WEBRip ... -WEEDS.mp4": 342976845, "Outer.Banks.2020.S01E04.VOSTFR.WEBRip ... -WEEDS.mp4": 364273498, "Outer.Banks.2020.S01E05.VOSTFR.WEBRip ...
创建时间: 2020-04-28 19:44:11 大小:3.46 GB 文件数量:10 热度:3 最近下载:2024-01-01 11:42:05
    ... LOKiHD - Telly.mkv": 547506229, "Outer Banks 2020 S01E02 720p NF ... LOKiHD - Telly.mkv": 464577798, "Outer Banks 2020 S01E03 720p NF ... LOKiHD - Telly.mkv": 473086167, "Outer Banks 2020 S01E04 720p NF ... LOKiHD - Telly.mkv": 491800891, "Outer Banks 2020 S01E05 720p NF ...
创建时间: 2020-04-30 10:34:42 大小:4.76 GB 文件数量:12 热度:4 最近下载:2025-03-14 17:38:03
    ... .to .txt": 689, "Wicked.Tuna.Outer.Banks.S06E15.All.Out.War ... -CAFFEiNE.mkv": 1237280435, "wicked.tuna.outer.banks.s06e15.all.out.war ...
创建时间: 2020-05-02 16:48:19 大小:1.16 GB 文件数量:7 热度:6 最近下载:2025-09-19 05:56:02
    {"subs": {"5rFF-outbanks-E01.eng.srt": 73382, "5rFF-outbanks-E01.rus.srt": 79581, "5rFF-outbanks-E02.eng.srt": 55242, "5rFF-outbanks-E02.rus.srt": 60213, "5rFF-outbanks-E03.eng.srt": 53436, "5rFF-outbanks-E03.rus.srt": 56965, "5rFF-outbanks-E04.eng.srt": ...
创建时间: 2020-05-02 18:29:52 大小:2.13 GB 文件数量:31 热度:3 最近下载:2024-01-02 00:24:01
    {"setup_albedo_eyes_from_outer_space_2.0.0.1.exe": 817199888}
创建时间: 2020-05-04 21:45:11 大小:779.34 MB 文件数量:1 热度:4 最近下载:2024-07-11 08:48:02
    ... .jpg": 332384, "Dubnology Journeys Into Outer Bass (CD1)": {"08.Tribal Drift ... ).flac": 72241314}, "Dubnology Journeys Into Outer Bass (CD2)": {"10.Underworld - Rez ...
创建时间: 2020-05-04 22:32:59 大小:990.99 MB 文件数量:22 热度:3 最近下载:2023-04-22 23:02:05
    {"Cover.jpg": 27173, "04. Fear.mp3": 17978937, "01. Swansea.mp3": 12641604, "02. Red Moon.mp3": 19061459, "06. Stellars.mp3": 15427304, "05. Addiction.mp3": 11686571, "03. Open Window.mp3": 12636387, "07. Dance a Little Light.mp3": 13329173}
创建时间: 2020-05-06 14:41:12 大小:98.03 MB 文件数量:8 热度:3 最近下载:2023-04-23 00:50:01
    {"data.bin": 9417881, "vcredist": {"DirectX": {"DirectX Web setup.exe": 299864}, "vcredist_x64.exe": 3175832, "vcredist_x86.exe": 2707352}, "Setup.exe": 4844271, "data1.bin": 19214833394, "data2.bin": 19884733292}
创建时间: 2020-05-06 16:05:38 大小:36.43 GB 文件数量:7 热度:3 最近下载:2023-04-23 01:10:13
    ... .flac": 32371543, "colin dale's outer limits.cue": 1150, "colin dale ... 's outer limits.log": 13308, "colin dale ... 's outer limits.m3u": 907, "03. outlander ...
创建时间: 2020-05-08 22:30:09 大小:405.95 MB 文件数量:16 热度:3 最近下载:2022-04-08 06:27:36
    ... Little Light.flac": 66719478, "The Outer Sonics - Dance a Little Light ...
创建时间: 2020-05-09 14:44:36 大小:480.43 MB 文件数量:8 热度:3 最近下载:2022-04-08 06:11:10
    {"Front.jpg": 18137, "results.log": 2281, "05 - Supernova.flac": 16015807, "09 - We Are Not Ready.flac": 21631840, "01 - They Are Watching.flac": 18934399, "04 - Love (Sky Sister).flac": 23464431, "03 - Take off Your Tin Hat.flac": 23394203, "07 - Stone of ...
创建时间: 2020-05-09 16:41:11 大小:168.07 MB 文件数量:11 热度:6 最近下载:2022-04-08 05:40:45
    {"theCatFromOuterSpace Еng.srt": 98279, "The Cat from Outer Space Rus.srt": 94727, "The Cat from Outer Space (1978) DVDRip.avi": 1557262154}
创建时间: 2020-05-09 18:31:20 大小:1.45 GB 文件数量:3 热度:3 最近下载:2025-02-01 11:40:03
    ... ęć z kosmosu - Plan 9 from Outer Space 1959 [720p.BRRip.Xvid ...
创建时间: 2020-05-09 22:07:13 大小:1.45 GB 文件数量:4 热度:3 最近下载:2024-11-23 14:08:02
    ... Dead Calm.mkv": 731478363, "Outer Banks S01e05 Midsummers.mkv": ... Runway.mkv": 682068963, "Outer Banks S01e10 The Phantom.mkv ... ": 964482174, "Outer Banks S01e09 The Bell Tower ... Compass.mkv": 749496714, "Outer Banks S01e03 The Forbidden Zone ...
创建时间: 2020-05-10 01:22:05 大小:7.15 GB 文件数量:10 热度:3 最近下载:2022-04-08 06:08:10
    ... .x265-NTb.mkv": 8722682225, "Outer.Banks.S01E02.2160p.NF.WEBRip ... .x265-NTb.mkv": 7023768923, "Outer.Banks.S01E03.2160p.NF.WEBRip ... 1.x265-NTb.mkv": 11029443180, "Outer.Banks.S01E07.2160p.NF.WEBRip ... 1.x265-NTb.mkv": 12946090384, "Outer.Banks.S01E10.2160p.NF.WEBRip ...
创建时间: 2020-05-18 15:38:49 大小:88.85 GB 文件数量:11 热度:10 最近下载:2024-09-27 13:51:02